Time;durP1;ratioP1;P1;durP2;ratioP2;P2;SDS_P1;SDS_P2;PMS_P1;PMS_P2;Temp;Humidity;BMP_temperature;BMP_pressure;BME280_temperature;BME280_humidity;BME280_pressure;Samples;Min_cycle;Max_cycle;Signal;HPM_P1;HPM_P2
2022/01/19 00:00:07;;;;;;;3.92;2.70;;;;;;;6.43;62.38;101199.78;343713;28;1103;-66
2022/01/19 00:00:19;;;;;;;4.15;2.70;;;;;;;6.45;62.93;101192.91;343245;28;1788;-66
2022/01/19 00:00:31;;;;;;;4.10;2.53;;;;;;;6.40;62.52;101203.22;342881;28;1844;-66
2022/01/19 00:00:44;;;;;;;3.63;2.50;;;;;;;6.43;62.60;101199.78;343525;28;1013;-66
2022/01/19 00:00:56;;;;;;;3.92;2.67;;;;;;;6.43;62.91;101199.78;342773;28;1307;-66
2022/01/19 00:01:08;;;;;;;4.38;2.80;;;;;;;6.45;62.05;101203.25;343251;28;1736;-66
2022/01/19 00:01:21;;;;;;;4.30;2.80;;;;;;;6.46;62.80;101202.38;343790;28;1311;-66
2022/01/19 00:01:34;;;;;;;4.15;2.83;;;;;;;6.47;62.37;101198.97;343412;28;1665;-66
2022/01/19 00:01:49;;;;;;;3.95;2.90;;;;;;;6.46;62.60;101195.53;343108;28;1892;-66
2022/01/19 00:02:01;;;;;;;4.30;2.92;;;;;;;6.47;62.21;101194.66;343544;28;1017;-66
2022/01/19 00:02:13;;;;;;;4.00;2.88;;;;;;;6.46;62.74;101199.81;342814;28;1439;-66
2022/01/19 00:02:25;;;;;;;5.47;2.90;;;;;;;6.49;62.46;101199.84;343196;28;1824;-66
2022/01/19 00:02:38;;;;;;;5.50;3.00;;;;;;;6.49;62.11;101198.13;343349;28;1263;-66
2022/01/19 00:02:50;;;;;;;4.50;2.80;;;;;;;6.49;62.47;101195.53;343098;28;2023;-66
2022/01/19 00:03:03;;;;;;;6.13;2.75;;;;;;;6.52;62.24;101194.69;342607;28;1509;-66
2022/01/19 00:03:15;;;;;;;6.90;2.65;;;;;;;6.51;62.50;101198.13;342417;28;1020;-66
2022/01/19 00:03:27;;;;;;;4.93;2.80;;;;;;;6.52;62.37;101194.69;342552;28;2244;-66
2022/01/19 00:03:40;;;;;;;4.35;2.90;;;;;;;6.53;62.63;101194.72;343218;28;1054;-66
2022/01/19 00:03:52;;;;;;;3.40;2.75;;;;;;;6.53;61.65;101189.53;341644;28;1602;-66
2022/01/19 00:04:04;;;;;;;3.33;2.70;;;;;;;6.53;61.50;101191.25;341334;28;1555;-66
2022/01/19 00:04:16;;;;;;;3.80;2.70;;;;;;;6.52;61.58;101195.56;342114;28;1337;-66
2022/01/19 00:04:28;;;;;;;3.92;2.58;;;;;;;6.54;61.96;101190.41;341820;28;1890;-67
2022/01/19 00:04:40;;;;;;;4.30;2.70;;;;;;;6.54;62.22;101195.56;341827;28;1896;-66
2022/01/19 00:04:52;;;;;;;3.72;2.60;;;;;;;6.52;61.14;101194.69;340130;29;1148;-66
2022/01/19 00:05:07;;;;;;;4.40;2.67;;;;;;;6.49;61.63;101187.78;340037;29;1710;-66
2022/01/19 00:05:19;;;;;;;5.07;2.80;;;;;;;6.54;61.98;101192.97;340932;28;2037;-66
2022/01/19 00:05:31;;;;;;;4.47;2.80;;;;;;;6.47;62.46;101191.22;341971;28;1120;-66
2022/01/19 00:05:44;;;;;;;3.80;2.70;;;;;;;6.53;62.47;101193.84;342196;28;1771;-66
2022/01/19 00:05:56;;;;;;;4.65;2.70;;;;;;;6.50;62.58;101191.22;342376;28;1806;-66
2022/01/19 00:06:08;;;;;;;5.38;2.53;;;;;;;6.50;61.36;101181.78;342699;28;1046;-66
2022/01/19 00:06:20;;;;;;;5.30;2.63;;;;;;;6.51;61.42;101188.66;342791;28;1763;-66
2022/01/19 00:06:32;;;;;;;5.68;2.83;;;;;;;6.54;62.03;101187.81;343391;28;1283;-66
2022/01/19 00:06:44;;;;;;;5.25;2.70;;;;;;;6.53;62.45;101186.09;343475;28;1110;-66
2022/01/19 00:06:56;;;;;;;4.75;2.60;;;;;;;6.56;61.94;101186.09;343441;28;1353;-66
2022/01/19 00:07:09;;;;;;;3.47;2.60;;;;;;;6.57;61.76;101182.69;343623;28;1151;-66
2022/01/19 00:07:21;;;;;;;3.10;2.65;;;;;;;6.58;61.85;101185.28;343704;28;1045;-66
2022/01/19 00:07:33;;;;;;;3.90;2.60;;;;;;;6.59;61.73;101180.97;343362;28;1637;-66
2022/01/19 00:07:45;;;;;;;5.43;2.53;;;;;;;6.58;61.91;101189.59;343197;28;1799;-66
2022/01/19 00:07:57;;;;;;;4.97;2.45;;;;;;;6.57;61.64;101182.69;343425;28;1079;-66
2022/01/19 00:08:15;;;;;;;3.72;2.50;;;;;;;6.60;61.76;101187.91;343374;28;944;-66
2022/01/19 00:08:28;;;;;;;3.90;2.60;;;;;;;6.63;61.56;101187.91;342245;28;1031;-66
2022/01/19 00:08:41;;;;;;;3.97;2.55;;;;;;;6.62;61.26;101180.13;341982;28;1290;-66
2022/01/19 00:08:53;;;;;;;4.07;2.53;;;;;;;6.62;61.00;101181.03;342163;28;1333;-66
2022/01/19 00:09:05;;;;;;;3.95;2.60;;;;;;;6.64;61.27;101179.31;343345;28;1158;-66
2022/01/19 00:09:17;;;;;;;4.03;2.72;;;;;;;6.63;61.48;101180.16;343455;28;1259;-66
2022/01/19 00:09:29;;;;;;;4.03;2.70;;;;;;;6.62;62.11;101175.84;343483;28;1059;-66
2022/01/19 00:09:41;;;;;;;3.88;2.90;;;;;;;6.61;61.60;101176.69;343405;28;1125;-66
2022/01/19 00:09:53;;;;;;;4.90;3.03;;;;;;;6.63;61.99;101177.56;343446;28;1063;-67
2022/01/19 00:10:10;;;;;;;6.68;2.78;;;;;;;6.63;61.65;101172.41;343287;28;1248;-66
2022/01/19 00:10:27;;;;;;;6.15;2.60;;;;;;;6.65;61.80;101175.84;343565;28;1104;-66
2022/01/19 00:10:39;;;;;;;5.45;2.88;;;;;;;6.63;61.65;101172.41;343402;28;1236;-67
2022/01/19 00:10:52;;;;;;;5.45;2.88;;;;;;;6.55;62.78;101174.06;343391;28;1018;-66
2022/01/19 00:11:04;;;;;;;5.72;3.10;;;;;;;6.56;62.71;101171.50;343093;28;1887;-66
2022/01/19 00:11:16;;;;;;;7.05;3.15;;;;;;;6.58;62.10;101174.09;343404;28;1079;-66
2022/01/19 00:11:28;;;;;;;6.55;3.10;;;;;;;6.59;61.99;101170.66;343387;28;1056;-66
2022/01/19 00:11:40;;;;;;;5.60;3.08;;;;;;;6.57;62.10;101173.22;343276;28;1271;-66
2022/01/19 00:11:52;;;;;;;4.28;2.90;;;;;;;6.58;62.30;101168.94;343535;28;1046;-66
2022/01/19 00:12:04;;;;;;;5.30;2.90;;;;;;;6.57;61.90;101167.19;343153;28;1257;-66
2022/01/19 00:12:16;;;;;;;5.60;3.00;;;;;;;6.56;61.80;101173.19;343632;28;1054;-66
2022/01/19 00:12:31;;;;;;;5.15;2.90;;;;;;;6.55;62.41;101163.72;343364;28;927;-66
2022/01/19 00:12:45;;;;;;;4.22;2.60;;;;;;;6.56;61.96;101165.44;343364;28;1059;-66
2022/01/19 00:12:59;;;;;;;5.20;2.83;;;;;;;6.56;61.98;101165.44;343195;28;1331;-66
2022/01/19 00:13:11;;;;;;;6.13;3.20;;;;;;;6.52;62.89;101164.56;343018;28;1612;-67
2022/01/19 00:13:24;;;;;;;6.00;3.10;;;;;;;6.53;62.18;101165.44;343311;28;1079;-66
2022/01/19 00:13:36;;;;;;;4.53;3.03;;;;;;;6.55;62.18;101153.41;343236;28;1050;-66
2022/01/19 00:13:50;;;;;;;4.63;3.00;;;;;;;6.56;62.50;101162.84;343132;28;1759;-67
2022/01/19 00:14:02;;;;;;;4.55;2.90;;;;;;;6.53;62.51;101155.94;343270;28;1071;-66
2022/01/19 00:14:14;;;;;;;4.70;3.03;;;;;;;6.60;61.77;101154.31;343366;28;1055;-66
2022/01/19 00:14:27;;;;;;;4.15;3.10;;;;;;;6.54;62.72;101156.81;343679;28;1059;-67
2022/01/19 00:14:39;;;;;;;4.00;2.90;;;;;;;6.57;62.65;101162.88;343446;28;1154;-66
2022/01/19 00:14:51;;;;;;;4.38;2.90;;;;;;;6.59;62.04;101160.31;343631;28;1403;-66
2022/01/19 00:15:07;;;;;;;4.68;2.92;;;;;;;6.54;61.96;101152.53;343413;28;1653;-67
2022/01/19 00:15:19;;;;;;;5.82;3.10;;;;;;;6.55;62.07;101151.66;343486;28;1099;-67
2022/01/19 00:15:31;;;;;;;6.03;3.08;;;;;;;6.56;61.94;101155.09;342968;28;1586;-66
2022/01/19 00:15:43;;;;;;;6.32;2.95;;;;;;;6.47;61.93;101149.88;342140;28;1272;-67
2022/01/19 00:15:57;;;;;;;5.50;2.70;;;;;;;6.33;62.22;101152.34;343162;28;1648;-66
2022/01/19 00:16:09;;;;;;;4.32;2.65;;;;;;;6.32;62.94;101151.50;342900;28;2530;-67
2022/01/19 00:16:22;;;;;;;4.10;2.75;;;;;;;6.34;62.79;101149.78;343228;28;1066;-66
2022/01/19 00:16:34;;;;;;;4.70;2.90;;;;;;;6.39;62.19;101153.25;342958;28;1253;-67
2022/01/19 00:16:46;;;;;;;4.07;2.75;;;;;;;6.44;62.29;101149.84;342098;28;1927;-66
2022/01/19 00:16:58;;;;;;;4.53;2.88;;;;;;;6.48;62.18;101146.44;343524;28;1547;-66
2022/01/19 00:17:10;;;;;;;4.46;2.94;;;;;;;6.50;62.48;101143.03;343249;28;1867;-66
2022/01/19 00:17:22;;;;;;;4.38;3.03;;;;;;;6.54;62.17;101141.31;343614;28;1285;-66
2022/01/19 00:17:34;;;;;;;5.00;2.83;;;;;;;6.54;62.12;101143.91;343330;28;1757;-66
2022/01/19 00:17:46;;;;;;;4.53;2.78;;;;;;;6.59;62.35;101144.81;343040;28;1818;-66
2022/01/19 00:17:59;;;;;;;4.72;2.70;;;;;;;6.59;61.56;101145.66;343473;28;1298;-66
2022/01/19 00:18:11;;;;;;;4.10;2.70;;;;;;;6.57;62.45;101142.22;342964;28;1555;-67
2022/01/19 00:18:25;;;;;;;4.18;2.70;;;;;;;6.54;62.01;101142.19;343351;28;1123;-66
2022/01/19 00:18:37;;;;;;;4.38;2.70;;;;;;;6.58;62.39;101138.78;343448;28;2117;-67
2022/01/19 00:18:49;;;;;;;4.28;2.80;;;;;;;6.59;62.67;101137.06;343052;28;1739;-66
2022/01/19 00:19:01;;;;;;;4.53;2.75;;;;;;;6.60;61.96;101136.22;343540;28;1259;-66
2022/01/19 00:19:13;;;;;;;4.00;2.80;;;;;;;6.63;62.39;101137.97;342210;28;1584;-66
2022/01/19 00:19:25;;;;;;;3.67;2.88;;;;;;;6.63;62.17;101137.97;342981;28;1302;-66
2022/01/19 00:19:37;;;;;;;4.30;3.20;;;;;;;6.64;62.02;101132.81;342940;28;1071;-66
2022/01/19 00:19:49;;;;;;;4.68;3.03;;;;;;;6.64;62.02;101135.38;342650;28;1204;-66
2022/01/19 00:20:01;;;;;;;5.90;2.95;;;;;;;6.62;61.64;101139.69;342677;28;1539;-66
2022/01/19 00:20:13;;;;;;;5.68;2.70;;;;;;;6.64;62.51;101137.97;342307;28;2038;-66
2022/01/19 00:20:28;;;;;;;4.95;2.75;;;;;;;6.67;62.25;101137.13;341942;28;2004;-67
2022/01/19 00:20:40;;;;;;;3.00;2.58;;;;;;;6.67;62.08;101132.81;341901;28;1080;-66
2022/01/19 00:20:54;;;;;;;3.75;2.67;;;;;;;6.69;61.89;101131.09;343139;28;1793;-66
2022/01/19 00:21:06;;;;;;;4.28;3.00;;;;;;;6.68;61.37;101134.56;343093;28;1517;-66
2022/01/19 00:21:18;;;;;;;4.95;3.10;;;;;;;6.67;61.30;101132.81;343695;28;1155;-66
2022/01/19 00:21:32;;;;;;;5.57;3.20;;;;;;;6.58;61.40;101137.94;343277;28;1693;-66
2022/01/19 00:21:45;;;;;;;5.88;3.00;;;;;;;6.59;61.53;101135.34;343454;28;1040;-66
2022/01/19 00:21:57;;;;;;;6.15;2.97;;;;;;;6.61;61.41;101132.78;343566;28;1341;-66
2022/01/19 00:22:09;;;;;;;6.28;2.90;;;;;;;6.52;62.03;101132.69;343510;28;1177;-66
2022/01/19 00:22:21;;;;;;;5.85;2.88;;;;;;;6.55;62.21;101137.88;343580;28;1067;-66
2022/01/19 00:22:33;;;;;;;5.32;2.70;;;;;;;6.57;62.39;101129.28;343305;28;1039;-66
2022/01/19 00:22:45;;;;;;;6.53;2.75;;;;;;;6.56;61.83;101139.59;343293;28;1638;-66
2022/01/19 00:22:58;;;;;;;6.75;2.72;;;;;;;6.57;61.77;101125.84;343243;28;1503;-67
2022/01/19 00:23:11;;;;;;;6.90;2.75;;;;;;;6.58;61.46;101132.75;343637;28;1115;-67
2022/01/19 00:23:24;;;;;;;6.93;2.97;;;;;;;6.55;61.81;101135.31;343150;28;1975;-66
2022/01/19 00:23:36;;;;;;;5.20;2.90;;;;;;;6.53;61.64;101135.28;343350;28;2552;-67
2022/01/19 00:23:48;;;;;;;4.05;2.70;;;;;;;6.44;61.81;101136.94;343538;28;1037;-66
2022/01/19 00:24:00;;;;;;;3.95;2.63;;;;;;;6.49;62.61;101137.84;342537;28;1729;-66
2022/01/19 00:24:16;;;;;;;5.30;2.83;;;;;;;6.40;63.03;101144.66;343225;28;1839;-66
2022/01/19 00:24:28;;;;;;;5.65;3.15;;;;;;;6.34;63.39;101139.44;343442;28;1207;-66
2022/01/19 00:24:41;;;;;;;6.22;3.38;;;;;;;6.31;63.36;101144.56;341405;28;1794;-66
2022/01/19 00:24:53;;;;;;;4.60;3.10;;;;;;;6.36;63.00;101142.06;341886;28;1682;-66
2022/01/19 00:25:06;;;;;;;4.68;2.90;;;;;;;6.36;62.70;101148.06;341895;28;1128;-66
2022/01/19 00:25:19;;;;;;;5.63;3.03;;;;;;;6.38;62.85;101145.50;341873;28;1892;-66
2022/01/19 00:25:32;;;;;;;5.60;3.00;;;;;;;6.39;62.12;101150.66;341806;28;1714;-66
2022/01/19 00:25:45;;;;;;;4.68;3.03;;;;;;;6.37;61.94;101142.03;341816;28;1231;-66
2022/01/19 00:25:57;;;;;;;4.53;3.10;;;;;;;6.39;63.20;101147.22;342638;28;2330;-66
2022/01/19 00:26:09;;;;;;;4.13;3.00;;;;;;;6.37;63.64;101141.19;343582;28;1332;-66
2022/01/19 00:26:21;;;;;;;4.57;3.20;;;;;;;6.36;62.76;101144.63;342600;28;1077;-66
2022/01/19 00:26:33;;;;;;;4.93;3.20;;;;;;;6.39;62.75;101142.91;341875;28;1689;-67
2022/01/19 00:26:47;;;;;;;5.57;3.30;;;;;;;6.31;63.06;101143.72;341465;28;1246;-66
2022/01/19 00:26:58;;;;;;;4.97;3.15;;;;;;;6.24;63.50;101153.13;343375;28;1836;-66
2022/01/19 00:27:11;;;;;;;5.25;2.90;;;;;;;6.02;64.06;101141.75;344012;28;1926;-66
2022/01/19 00:27:23;;;;;;;4.55;2.90;;;;;;;5.94;64.20;101149.38;342190;28;1343;-66
2022/01/19 00:27:35;;;;;;;4.25;3.00;;;;;;;6.00;63.97;101148.59;342805;28;1687;-66
2022/01/19 00:27:48;;;;;;;4.32;3.13;;;;;;;5.81;63.61;101147.50;343347;28;1941;-66
2022/01/19 00:28:00;;;;;;;4.70;3.00;;;;;;;5.72;64.22;101150.00;342868;28;1285;-66
2022/01/19 00:28:14;;;;;;;5.00;3.10;;;;;;;5.85;64.08;101144.09;342760;28;1913;-66
2022/01/19 00:28:27;;;;;;;5.13;3.08;;;;;;;5.89;63.50;101150.16;343310;28;1318;-66
2022/01/19 00:28:39;;;;;;;5.28;2.92;;;;;;;5.88;63.83;101151.88;343233;28;1794;-66
2022/01/19 00:28:51;;;;;;;5.65;2.83;;;;;;;5.84;63.46;101150.13;342679;28;1804;-66
2022/01/19 00:29:03;;;;;;;5.80;2.90;;;;;;;5.72;64.11;101150.00;343463;28;1479;-66
2022/01/19 00:29:15;;;;;;;6.32;3.00;;;;;;;5.72;64.12;101155.16;342978;28;1632;-66
2022/01/19 00:29:27;;;;;;;4.90;3.05;;;;;;;5.80;64.21;101150.94;342160;28;1914;-66
2022/01/19 00:29:39;;;;;;;6.55;3.28;;;;;;;5.86;64.16;101147.56;343428;28;1851;-66
2022/01/19 00:29:51;;;;;;;6.72;3.40;;;;;;;5.84;64.56;101157.84;343146;28;1869;-66
2022/01/19 00:30:05;;;;;;;6.72;3.40;;;;;;;5.91;64.54;101154.47;343375;28;1107;-66
2022/01/19 00:30:17;;;;;;;5.40;3.15;;;;;;;5.90;63.54;101152.75;342892;28;1707;-66
2022/01/19 00:30:29;;;;;;;5.97;3.28;;;;;;;5.92;63.99;101153.66;343229;28;1696;-66
2022/01/19 00:30:42;;;;;;;7.15;3.40;;;;;;;5.94;64.05;101153.66;343613;28;1164;-66
2022/01/19 00:30:54;;;;;;;6.88;3.22;;;;;;;5.93;63.61;101147.63;343108;28;1847;-67
2022/01/19 00:31:06;;;;;;;4.95;3.00;;;;;;;5.96;64.54;101152.00;343544;28;1329;-65
2022/01/19 00:31:18;;;;;;;4.50;2.90;;;;;;;5.87;64.45;101154.44;343181;28;1820;-66
2022/01/19 00:31:30;;;;;;;4.93;3.00;;;;;;;5.80;64.25;101156.09;343665;28;1222;-66
2022/01/19 00:31:42;;;;;;;5.65;3.10;;;;;;;5.81;64.19;101147.50;343676;28;1276;-66
2022/01/19 00:31:54;;;;;;;4.95;2.90;;;;;;;5.81;63.96;101152.66;343629;28;1938;-66
2022/01/19 00:32:06;;;;;;;4.80;2.97;;;;;;;5.85;64.06;101154.41;342287;28;1047;-66
2022/01/19 00:32:20;;;;;;;5.15;3.05;;;;;;;5.88;64.14;101149.31;342258;28;1075;-66
2022/01/19 00:32:33;;;;;;;5.88;3.20;;;;;;;5.90;63.89;101147.59;343093;28;1620;-66
2022/01/19 00:32:45;;;;;;;5.40;3.00;;;;;;;5.95;63.67;101156.28;342976;28;2079;-66
2022/01/19 00:32:57;;;;;;;5.82;2.95;;;;;;;5.99;63.74;101160.63;343253;28;1405;-66
2022/01/19 00:33:13;;;;;;;5.38;2.85;;;;;;;6.04;63.80;101154.63;342716;28;1580;-66
2022/01/19 00:33:27;;;;;;;4.82;2.92;;;;;;;6.02;63.60;101153.75;342781;28;1744;-66
2022/01/19 00:33:39;;;;;;;4.45;3.10;;;;;;;6.08;63.88;101156.44;343097;28;1610;-66
2022/01/19 00:33:51;;;;;;;4.07;2.90;;;;;;;6.10;63.29;101157.31;343266;28;1838;-66
2022/01/19 00:34:03;;;;;;;4.47;2.90;;;;;;;6.04;63.82;101159.78;342573;28;1509;-66
2022/01/19 00:34:15;;;;;;;6.25;3.05;;;;;;;5.96;63.72;101163.19;343307;28;1104;-66
2022/01/19 00:34:28;;;;;;;7.30;3.10;;;;;;;5.88;64.50;101159.63;342597;28;1513;-67
2022/01/19 00:34:40;;;;;;;6.47;3.05;;;;;;;5.89;63.90;101158.75;342651;28;1467;-66
2022/01/19 00:34:52;;;;;;;5.53;3.08;;;;;;;5.91;63.21;101159.63;343252;28;1795;-66
2022/01/19 00:35:06;;;;;;;5.25;3.05;;;;;;;5.92;62.82;101163.97;343103;28;1644;-67
2022/01/19 00:35:18;;;;;;;4.95;3.10;;;;;;;5.92;63.38;101158.81;342033;28;1458;-65
2022/01/19 00:35:30;;;;;;;4.47;3.10;;;;;;;5.91;64.38;101164.81;343512;28;2142;-66
2022/01/19 00:35:42;;;;;;;3.90;3.00;;;;;;;5.91;63.88;101166.53;343575;28;1255;-66
2022/01/19 00:35:55;;;;;;;3.88;3.00;;;;;;;5.97;63.51;101164.91;343555;28;1023;-66
2022/01/19 00:36:07;;;;;;;3.80;3.03;;;;;;;5.98;63.41;101166.66;342494;28;1316;-66
2022/01/19 00:36:19;;;;;;;4.13;3.05;;;;;;;6.00;63.96;101172.69;342505;28;1329;-66
2022/01/19 00:36:31;;;;;;;4.63;3.10;;;;;;;6.02;63.26;101171.81;343005;28;1965;-66
2022/01/19 00:36:43;;;;;;;4.18;3.08;;;;;;;6.03;64.17;101173.56;343258;28;1627;-66
2022/01/19 00:36:55;;;;;;;3.90;3.00;;;;;;;6.02;63.61;101176.97;342520;28;2276;-66
2022/01/19 00:37:07;;;;;;;4.07;3.10;;;;;;;5.99;63.98;101170.94;342449;28;1730;-66
2022/01/19 00:37:19;;;;;;;5.18;3.30;;;;;;;6.03;63.66;101173.56;343553;28;1292;-66
2022/01/19 00:37:32;;;;;;;5.13;3.28;;;;;;;6.07;64.14;101168.44;343426;28;1091;-66
2022/01/19 00:37:44;;;;;;;4.68;3.20;;;;;;;6.12;63.76;101173.69;342776;28;1182;-66
2022/01/19 00:37:56;;;;;;;4.47;3.22;;;;;;;6.15;64.15;101173.69;342944;28;2224;-67
2022/01/19 00:38:08;;;;;;;4.13;3.20;;;;;;;6.21;64.08;101173.75;342664;28;1071;-66
2022/01/19 00:38:20;;;;;;;3.80;2.90;;;;;;;6.23;64.12;101172.03;343483;28;1108;-66
2022/01/19 00:38:35;;;;;;;4.97;2.90;;;;;;;6.26;63.71;101179.84;343073;28;1669;-66
2022/01/19 00:38:47;;;;;;;5.70;3.13;;;;;;;6.31;63.86;101172.97;342559;28;1280;-66
2022/01/19 00:38:59;;;;;;;5.72;3.28;;;;;;;6.35;63.67;101172.16;342844;28;1723;-66
2022/01/19 00:39:12;;;;;;;4.57;3.13;;;;;;;6.37;64.02;101180.78;342272;28;1721;-66
2022/01/19 00:39:29;;;;;;;4.93;3.20;;;;;;;6.38;63.07;101173.94;343546;28;1261;-66
2022/01/19 00:39:41;;;;;;;4.25;3.00;;;;;;;6.35;63.35;101172.16;341950;28;1888;-66
2022/01/19 00:39:53;;;;;;;4.28;2.85;;;;;;;6.25;63.38;101182.41;343168;28;2038;-66
2022/01/19 00:40:07;;;;;;;4.15;2.90;;;;;;;6.16;63.49;101180.59;342644;28;1722;-66
2022/01/19 00:40:20;;;;;;;4.22;3.10;;;;;;;6.08;63.27;101183.09;343322;28;1268;-66
2022/01/19 00:40:33;;;;;;;5.03;3.10;;;;;;;6.07;63.48;101175.34;343053;28;1752;-66
2022/01/19 00:40:46;;;;;;;5.70;3.05;;;;;;;6.09;63.43;101177.06;342979;28;1693;-66
2022/01/19 00:40:58;;;;;;;6.78;3.10;;;;;;;6.15;63.71;101178.84;343047;28;1518;-66
2022/01/19 00:41:10;;;;;;;6.43;3.08;;;;;;;6.21;63.61;101173.75;342581;28;1618;-66
2022/01/19 00:41:22;;;;;;;5.43;3.05;;;;;;;6.25;63.40;101179.81;343348;28;1242;-66
2022/01/19 00:41:34;;;;;;;4.82;2.97;;;;;;;6.29;62.74;101171.25;343579;28;1094;-67
2022/01/19 00:41:46;;;;;;;4.88;3.00;;;;;;;6.31;62.58;101180.72;343052;28;1693;-66
2022/01/19 00:41:59;;;;;;;5.45;3.20;;;;;;;6.31;62.01;101170.41;342411;28;1337;-66
2022/01/19 00:42:11;;;;;;;5.65;3.40;;;;;;;6.34;61.86;101178.19;343404;28;1979;-66
2022/01/19 00:42:23;;;;;;;5.13;3.40;;;;;;;6.35;62.48;101172.16;343187;28;1907;-66
2022/01/19 00:42:36;;;;;;;4.40;3.17;;;;;;;6.39;62.49;101173.06;342445;28;1115;-66
2022/01/19 00:42:49;;;;;;;4.35;2.83;;;;;;;6.40;62.90;101175.66;342321;28;1753;-66
2022/01/19 00:43:01;;;;;;;5.03;2.97;;;;;;;6.45;62.85;101174.84;342705;28;1454;-66
2022/01/19 00:43:15;;;;;;;5.10;3.08;;;;;;;6.46;62.90;101168.81;343632;28;1101;-66
2022/01/19 00:43:27;;;;;;;4.93;3.17;;;;;;;6.47;62.92;101166.25;343491;28;1110;-66
2022/01/19 00:43:39;;;;;;;4.00;3.13;;;;;;;6.49;62.59;101168.84;343647;28;1514;-67
2022/01/19 00:43:51;;;;;;;4.20;3.28;;;;;;;6.37;62.47;101165.28;343672;28;1070;-66
2022/01/19 00:44:04;;;;;;;4.82;3.17;;;;;;;6.23;63.15;101166.03;343557;28;1164;-67
2022/01/19 00:44:16;;;;;;;5.18;3.20;;;;;;;6.11;62.72;101167.63;343657;28;1269;-66
2022/01/19 00:44:28;;;;;;;5.22;3.20;;;;;;;6.09;62.50;101169.31;343513;28;1250;-66
2022/01/19 00:44:41;;;;;;;5.05;3.00;;;;;;;6.12;63.46;101168.50;343260;28;1023;-65
2022/01/19 00:44:53;;;;;;;3.95;2.90;;;;;;;6.12;63.17;101158.19;343582;28;1033;-66
2022/01/19 00:45:06;;;;;;;3.78;2.90;;;;;;;6.07;63.99;101165.88;343435;28;1356;-65
2022/01/19 00:45:19;;;;;;;4.43;3.13;;;;;;;6.01;63.71;101160.63;343607;28;1042;-66
2022/01/19 00:45:31;;;;;;;5.15;3.10;;;;;;;5.94;63.21;101164.84;343429;28;1049;-66
2022/01/19 00:45:58;;;;;;;5.70;3.00;;;;;;;6.00;63.55;101164.94;343290;28;1247;-66
2022/01/19 00:46:11;;;;;;;5.70;3.22;;;;;;;6.03;62.95;101163.25;342434;28;1790;-66
2022/01/19 00:46:23;;;;;;;6.25;3.38;;;;;;;5.93;63.18;101167.41;342077;28;1011;-65
2022/01/19 00:46:35;;;;;;;6.07;3.28;;;;;;;5.93;62.92;101163.09;340699;29;1230;-66
2022/01/19 00:46:47;;;;;;;6.93;3.05;;;;;;;5.97;63.01;101164.91;341796;28;1914;-66
2022/01/19 00:46:59;;;;;;;6.15;2.92;;;;;;;6.03;63.52;101163.25;342010;28;1040;-67
2022/01/19 00:47:12;;;;;;;4.13;2.78;;;;;;;6.10;63.33;101167.63;342121;28;1059;-66
2022/01/19 00:47:24;;;;;;;3.10;2.80;;;;;;;6.13;62.65;101162.47;340801;29;1068;-67
2022/01/19 00:47:36;;;;;;;4.15;2.90;;;;;;;6.16;62.54;101165.13;340422;29;1055;-66
2022/01/19 00:47:49;;;;;;;5.03;2.90;;;;;;;6.21;62.97;101168.59;341680;28;1000;-66
2022/01/19 00:48:01;;;;;;;4.88;3.05;;;;;;;6.25;62.96;101165.19;340879;29;1249;-66
2022/01/19 00:48:13;;;;;;;3.97;2.90;;;;;;;6.24;62.79;101160.88;340717;29;1036;-67
2022/01/19 00:48:26;;;;;;;3.70;2.88;;;;;;;6.29;62.96;101166.94;340684;29;1275;-66
2022/01/19 00:48:40;;;;;;;4.03;2.97;;;;;;;6.31;62.44;101165.22;341042;28;1874;-66
2022/01/19 00:48:52;;;;;;;4.70;3.10;;;;;;;6.35;62.76;101166.13;341849;28;1069;-66
2022/01/19 00:49:04;;;;;;;6.22;3.20;;;;;;;6.35;62.72;101168.72;343082;28;1117;-66
2022/01/19 00:49:16;;;;;;;5.70;3.13;;;;;;;6.31;62.97;101169.53;342335;28;1297;-66
2022/01/19 00:49:28;;;;;;;5.78;3.13;;;;;;;6.17;63.08;101166.81;340919;28;1695;-66
2022/01/19 00:49:42;;;;;;;6.32;3.20;;;;;;;6.10;62.78;101162.47;343096;28;1853;-66
2022/01/19 00:49:54;;;;;;;5.82;3.00;;;;;;;6.08;63.41;101166.75;344501;28;1267;-66
2022/01/19 00:50:09;;;;;;;4.82;3.00;;;;;;;6.05;63.17;101159.81;342469;28;1255;-66
2022/01/19 00:50:24;;;;;;;4.47;3.10;;;;;;;6.11;63.18;101156.44;342448;28;880;-66
2022/01/19 00:50:36;;;;;;;4.85;3.10;;;;;;;6.14;63.09;101166.81;343352;28;1667;-66
2022/01/19 00:50:50;;;;;;;5.15;3.30;;;;;;;6.17;63.87;101159.06;343492;28;1110;-66
2022/01/19 00:51:02;;;;;;;6.00;3.25;;;;;;;6.25;63.25;101159.16;342453;28;1258;-66
2022/01/19 00:51:14;;;;;;;5.15;3.10;;;;;;;6.29;63.14;101159.19;342640;28;2183;-66
2022/01/19 00:51:26;;;;;;;4.97;2.90;;;;;;;6.30;63.44;101163.53;343350;28;1875;-66
2022/01/19 00:51:38;;;;;;;5.05;2.83;;;;;;;6.26;63.53;101166.94;343314;28;2049;-66
2022/01/19 00:51:50;;;;;;;6.05;3.00;;;;;;;6.27;63.46;101160.91;343568;28;1070;-66
2022/01/19 00:52:03;;;;;;;5.60;3.03;;;;;;;6.24;63.63;101158.31;343072;28;1567;-66
2022/01/19 00:52:15;;;;;;;5.35;3.08;;;;;;;6.16;63.76;101159.94;343777;28;1066;-66
2022/01/19 00:52:27;;;;;;;4.90;3.00;;;;;;;6.19;63.57;101159.97;342740;28;1468;-66
2022/01/19 00:52:39;;;;;;;3.30;2.85;;;;;;;6.22;63.19;101164.28;343262;28;1148;-66
2022/01/19 00:52:52;;;;;;;3.22;2.83;;;;;;;6.16;63.20;101162.53;342063;28;1051;-65
2022/01/19 00:53:04;;;;;;;3.58;2.90;;;;;;;6.13;63.21;101165.06;342873;28;1982;-66
2022/01/19 00:53:16;;;;;;;4.60;3.13;;;;;;;6.09;63.00;101155.56;342129;28;2205;-66
2022/01/19 00:53:28;;;;;;;5.20;3.17;;;;;;;6.06;63.78;101158.13;342906;28;2123;-66
2022/01/19 00:53:40;;;;;;;4.82;3.25;;;;;;;6.03;64.08;101163.25;342786;28;1810;-66
2022/01/19 00:53:52;;;;;;;4.80;3.40;;;;;;;6.07;63.56;101159.84;344519;28;1051;-66
2022/01/19 00:54:05;;;;;;;4.72;3.25;;;;;;;6.11;64.40;101153.84;343139;28;1335;-66
2022/01/19 00:54:16;;;;;;;5.47;3.13;;;;;;;6.14;64.22;101156.47;343140;28;1951;-67
2022/01/19 00:54:31;;;;;;;5.97;3.13;;;;;;;6.19;63.81;101154.78;343236;28;1309;-66
2022/01/19 00:54:43;;;;;;;6.13;3.30;;;;;;;6.23;64.27;101158.28;342948;28;1066;-66
2022/01/19 00:54:55;;;;;;;5.38;3.40;;;;;;;6.19;62.95;101159.97;343038;28;1871;-66
2022/01/19 00:55:10;;;;;;;5.28;3.30;;;;;;;6.18;62.90;101155.66;343738;28;1622;-67
2022/01/19 00:55:25;;;;;;;5.28;3.28;;;;;;;6.20;62.78;101156.53;343674;28;1031;-66
2022/01/19 00:55:37;;;;;;;4.28;3.17;;;;;;;6.20;62.31;101159.13;343542;28;2141;-66
2022/01/19 00:55:49;;;;;;;4.68;3.42;;;;;;;6.15;62.72;101153.03;343118;28;2412;-66
2022/01/19 00:56:01;;;;;;;5.00;3.55;;;;;;;6.13;62.24;101154.75;343390;28;1386;-66
2022/01/19 00:56:13;;;;;;;4.97;3.60;;;;;;;6.07;63.29;101154.69;342935;28;1614;-66
2022/01/19 00:56:25;;;;;;;5.50;3.42;;;;;;;6.03;63.74;101158.94;342123;28;1862;-66
2022/01/19 00:56:37;;;;;;;5.18;3.20;;;;;;;6.08;63.82;101151.25;343438;28;1050;-66
2022/01/19 00:56:49;;;;;;;5.35;3.20;;;;;;;6.07;63.03;101154.69;343347;28;1956;-66
2022/01/19 00:57:01;;;;;;;5.53;3.33;;;;;;;6.08;63.47;101156.44;343713;28;1471;-66
2022/01/19 00:57:13;;;;;;;5.30;3.20;;;;;;;6.09;63.82;101158.13;343792;28;1270;-66
2022/01/19 00:57:25;;;;;;;4.53;3.20;;;;;;;6.12;63.71;101153.03;344068;28;1086;-66
2022/01/19 00:57:37;;;;;;;4.10;3.15;;;;;;;6.14;63.56;101159.06;343601;28;1246;-66
2022/01/19 00:57:49;;;;;;;3.85;3.00;;;;;;;6.16;63.69;101157.38;343830;28;1969;-66
2022/01/19 00:58:01;;;;;;;4.65;3.10;;;;;;;6.16;63.62;101159.94;343862;28;1488;-66
2022/01/19 00:58:14;;;;;;;5.60;3.33;;;;;;;6.17;63.39;101156.50;343777;28;1090;-66
2022/01/19 00:58:26;;;;;;;6.43;3.53;;;;;;;6.20;63.39;101159.13;343703;28;1027;-66
2022/01/19 00:58:38;;;;;;;6.15;3.60;;;;;;;6.20;62.51;101151.38;343763;28;1288;-66
2022/01/19 00:58:50;;;;;;;6.38;3.70;;;;;;;6.21;63.62;101160.84;343545;28;1349;-66
2022/01/19 00:59:02;;;;;;;6.13;3.63;;;;;;;6.21;64.07;101153.09;343996;28;1642;-66
2022/01/19 00:59:14;;;;;;;5.85;3.40;;;;;;;6.23;63.32;101155.69;343496;28;1995;-66
2022/01/19 00:59:26;;;;;;;5.53;3.10;;;;;;;6.19;63.54;101152.22;343708;28;1277;-66
2022/01/19 00:59:38;;;;;;;5.28;3.10;;;;;;;6.19;64.21;101154.78;343406;28;1719;-66
2022/01/19 00:59:52;;;;;;;5.03;3.10;;;;;;;6.21;63.85;101153.09;343945;28;1320;-66
2022/01/19 01:00:06;;;;;;;4.80;3.08;;;;;;;6.24;64.25;101155.72;343335;28;1355;-66
2022/01/19 01:00:21;;;;;;;5.15;3.13;;;;;;;6.25;64.26;101154.00;343420;28;1605;-66
2022/01/19 01:00:33;;;;;;;4.85;3.25;;;;;;;6.28;64.27;101154.00;343213;28;2384;-67
2022/01/19 01:00:45;;;;;;;4.20;3.05;;;;;;;6.26;64.01;101150.53;344030;28;1181;-66